メインページ
METAR-TAF:

METAR-TAF

空港 :

アンカレッジ, アラスカ州, アメリカ合衆国

テッド・スティーブンス・アンカレッジ国際空港

緯度: 61-10-28N, 経度: 149-59-46W, 海抜: 44m

現時点の気象観測

当レポートは29分前の12:53(UTC)に作成
南/南東の風 3kt
気温 7°C
湿度 100%
気圧 1008 hPa
視程: 16.1km
高度4500ftの雲は散在している
高度5500ftの千切れ雲あり

METAR: PANC 251253Z COR 15003KT 10SM SCT045 BKN055 07/07 A2978 RMK AO2 SLP084 T00720067

時間: 05:22 (13:22 UTC)

予報

当レポートは1時間48分前の11:34(UTC)に作成
予報は25日の 12時(UTC)から 26日の 18時(UTC)まで有効
南/南西の風 6kt
視程: 10km
高度500ftの雲はほとんどない
高度2500ftの雲は散在している
高度6000ftの曇り
近辺でにわか雨
25日の 12時(UTC)から 25日の 14時(UTC)まで一時的に
南/南西の風 10kt、最大18ktの突風を伴う
25日の 1800時(UTC)から
変向風 4kt
視程: 10km
高度5000ftの千切れ雲あり
26日の 0000時(UTC)から
南/南東の風 10kt
視程: 10km
高度5000ftの雲は散在している
26日の 0600時(UTC)から
の風 4kt
視程: 10km
高度5000ftの雲はほとんどない

TAF: PANC 251134Z 2512/2618 21006KT P6SM VCSH FEW005 SCT025 OVC060 TEMPO 2512/2514 21010G18KT FM251800 VRB04KT P6SM BKN050 FM260000 16010KT P6SM SCT050 FM260600 35004KT P6SM FEW050

4,000以上の空港の気象観測と天気予報(METAR報とTAF報)

利用可能な観測所は地図上に黄色い丸と赤い丸で示す。

丸の上にカーソルを重ねると観測所名を参照できる。

次にクリックすると気象観測と天気予報を参照できる。

マップの切り替え:黒色「×」印の緑ボタンをクリックして拡大、「-」印の緑ボタンをクリックして縮小、緑色の三角印をクリックして隣りの地図に切り替え


METAR-TAF: